createdAt,value
2019-04-10T00:01:06.443Z,55.87
2019-04-10T00:03:37.870Z,55.40
2019-04-10T00:06:06.658Z,56.23
2019-04-10T00:08:36.526Z,54.70
2019-04-10T00:11:05.897Z,56.23
2019-04-10T00:13:34.999Z,59.43
2019-04-10T00:16:04.070Z,57.47
2019-04-10T00:18:33.780Z,62.53
2019-04-10T00:21:03.110Z,61.20
2019-04-10T00:23:33.177Z,60.13
2019-04-10T00:26:03.514Z,65.23
2019-04-10T00:28:33.827Z,68.10
2019-04-10T00:31:03.023Z,65.43
2019-04-10T00:33:32.624Z,67.30
2019-04-10T00:36:01.869Z,69.40
2019-04-10T00:38:31.547Z,68.87
2019-04-10T00:41:00.807Z,72.67
2019-04-10T00:43:30.827Z,69.20
2019-04-10T00:46:00.058Z,75.47
2019-04-10T00:48:30.068Z,70.47
2019-04-10T00:50:59.309Z,75.33
2019-04-10T00:53:29.415Z,76.37
2019-04-10T00:55:58.613Z,75.97
2019-04-10T00:58:28.001Z,76.53
2019-04-10T01:00:57.266Z,76.37
2019-04-10T01:03:46.621Z,78.60
2019-04-10T01:06:15.914Z,81.33
2019-04-10T01:08:45.178Z,80.07
2019-04-10T01:11:15.030Z,86.63
2019-04-10T01:13:45.404Z,88.57
2019-04-10T01:16:16.247Z,97.73
2019-04-10T01:18:45.766Z,95.80
2019-04-10T01:21:15.062Z,93.83
2019-04-10T01:23:44.879Z,100.80
2019-04-10T01:26:14.924Z,91.40
2019-04-10T01:28:45.117Z,96.80
2019-04-10T01:31:15.088Z,94.80
2019-04-10T01:33:45.916Z,92.83
2019-04-10T01:36:15.170Z,97.00
2019-04-10T01:38:44.294Z,97.87
2019-04-10T01:41:32.849Z,100.97
2019-04-10T01:44:02.029Z,99.80
2019-04-10T01:46:33.604Z,98.33
2019-04-10T01:49:01.890Z,103.30
2019-04-10T01:51:31.024Z,102.27
2019-04-10T01:54:00.593Z,101.03
2019-04-10T01:56:34.444Z,94.07
2019-04-10T01:59:01.371Z,97.27
2019-04-10T02:01:38.882Z,97.67
2019-04-10T02:04:08.871Z,93.90
2019-04-10T02:06:38.141Z,91.53
2019-04-10T02:09:10.835Z,100.57
2019-04-10T02:11:40.051Z,97.23
2019-04-10T02:14:09.166Z,89.13
2019-04-10T02:16:39.054Z,90.67
2019-04-10T02:19:08.251Z,93.70
2019-04-10T02:21:38.034Z,95.40
2019-04-10T02:24:07.313Z,91.23
2019-04-10T02:26:36.412Z,96.03
2019-04-10T02:29:05.482Z,92.93
2019-04-10T02:31:34.680Z,95.53
2019-04-10T02:34:04.789Z,94.63
2019-04-10T02:36:36.185Z,97.60
2019-04-10T02:39:19.087Z,91.47
2019-04-10T02:41:38.593Z,90.07
2019-04-10T02:44:08.010Z,96.73
2019-04-10T02:46:38.752Z,100.40
2019-04-10T02:49:08.346Z,91.93
2019-04-10T02:51:38.871Z,91.90
2019-04-10T02:54:09.333Z,98.47
2019-04-10T02:56:39.205Z,97.00
2019-04-10T02:59:09.427Z,98.53
2019-04-10T03:01:39.920Z,100.43
2019-04-10T03:04:11.218Z,97.33
2019-04-10T03:06:40.044Z,100.53
2019-04-10T03:09:26.009Z,95.87
2019-04-10T03:11:41.794Z,98.70
2019-04-10T03:14:12.141Z,95.43
2019-04-10T03:16:41.796Z,103.97
2019-04-10T03:19:11.635Z,104.73
2019-04-10T03:21:40.829Z,101.23
2019-04-10T03:24:09.911Z,96.97
2019-04-10T03:26:39.489Z,97.37
2019-04-10T03:29:08.637Z,100.83
2019-04-10T03:31:39.125Z,103.53
2019-04-10T03:34:31.110Z,98.33
2019-04-10T03:36:59.999Z,103.43
2019-04-10T03:39:33.004Z,101.90
2019-04-10T03:42:00.960Z,98.50
2019-04-10T03:44:30.454Z,100.97
2019-04-10T03:47:00.717Z,101.77
2019-04-10T03:49:29.925Z,99.70
2019-04-10T03:51:59.060Z,104.23
2019-04-10T03:54:28.155Z,99.87
2019-04-10T03:56:58.233Z,101.73
2019-04-10T03:59:28.511Z,102.03
2019-04-10T04:01:57.693Z,94.73
2019-04-10T04:04:26.790Z,105.43
2019-04-10T04:06:55.872Z,101.27
2019-04-10T04:09:24.945Z,103.10
2019-04-10T04:11:54.047Z,97.00
2019-04-10T04:14:24.122Z,90.30
2019-04-10T04:16:53.603Z,102.37
2019-04-10T04:19:24.008Z,96.00
2019-04-10T04:21:54.262Z,97.40
2019-04-10T04:24:25.513Z,97.07
2019-04-10T04:26:55.569Z,98.47
2019-04-10T04:29:24.770Z,100.50
2019-04-10T04:31:54.714Z,98.73
2019-04-10T04:34:24.943Z,98.27
2019-04-10T04:36:54.171Z,99.83
2019-04-10T04:39:26.791Z,96.60
2019-04-10T04:41:54.007Z,99.37
2019-04-10T04:44:23.076Z,95.47
2019-04-10T04:46:52.723Z,102.43
2019-04-10T04:49:21.825Z,97.67
2019-04-10T04:51:50.903Z,99.27
2019-04-10T04:54:19.989Z,94.70
2019-04-10T04:56:49.070Z,95.60
2019-04-10T04:59:18.434Z,98.17
2019-04-10T05:01:47.621Z,93.27
2019-04-10T05:04:17.300Z,97.03
2019-04-10T05:06:46.517Z,90.97
2019-04-10T05:09:27.388Z,94.03
2019-04-10T05:11:46.828Z,90.73
2019-04-10T05:14:16.055Z,88.60
2019-04-10T05:16:45.715Z,91.20
2019-04-10T05:19:14.912Z,93.17
2019-04-10T05:21:43.997Z,91.87
2019-04-10T05:24:13.712Z,91.67
2019-04-10T05:26:42.874Z,93.40
2019-04-10T05:29:12.961Z,88.97
2019-04-10T05:31:42.670Z,92.93
2019-04-10T05:34:11.831Z,91.80
2019-04-10T05:36:41.999Z,94.33
2019-04-10T05:39:11.120Z,93.93
2019-04-10T05:41:40.203Z,90.47
2019-04-10T05:44:09.560Z,91.67
2019-04-10T05:46:38.907Z,86.57
2019-04-10T05:49:08.696Z,90.13
2019-04-10T05:51:37.862Z,83.43
2019-04-10T05:54:07.214Z,91.73
2019-04-10T05:56:36.459Z,91.87
2019-04-10T05:59:08.479Z,86.47
2019-04-10T06:01:39.567Z,93.17
2019-04-10T06:04:07.357Z,87.30
2019-04-10T06:06:36.678Z,88.67
2019-04-10T06:09:08.772Z,84.90
2019-04-10T06:11:39.316Z,95.63
2019-04-10T06:14:08.624Z,88.03
2019-04-10T06:16:37.646Z,87.80
2019-04-10T06:19:07.322Z,87.17
2019-04-10T06:21:37.437Z,85.43
2019-04-10T06:24:07.799Z,85.90
2019-04-10T06:26:37.558Z,82.50
2019-04-10T06:29:06.807Z,88.47
2019-04-10T06:31:36.807Z,85.97
2019-04-10T06:34:06.826Z,91.40
2019-04-10T06:36:36.116Z,84.30
2019-04-10T06:39:06.938Z,80.90
2019-04-10T06:41:36.904Z,82.57
2019-04-10T06:44:06.219Z,83.63
2019-04-10T06:46:37.610Z,77.93
2019-04-10T06:49:07.733Z,81.90
2019-04-10T06:51:37.553Z,75.40
2019-04-10T06:54:09.896Z,78.10
2019-04-10T06:56:37.577Z,78.23
2019-04-10T06:59:06.810Z,73.87
2019-04-10T07:01:47.226Z,78.10
2019-04-10T07:04:08.133Z,79.07
2019-04-10T07:06:51.609Z,76.60
2019-04-10T07:09:11.736Z,74.30
2019-04-10T07:11:41.025Z,74.57
2019-04-10T07:14:13.426Z,74.57
2019-04-10T07:16:42.167Z,70.90
2019-04-10T07:19:13.071Z,72.80
2019-04-10T07:21:42.688Z,69.03
2019-04-10T07:24:14.708Z,71.90
2019-04-10T07:26:45.973Z,72.77
2019-04-10T07:29:18.723Z,69.47
2019-04-10T07:31:44.733Z,71.80
2019-04-10T07:34:13.863Z,75.07
2019-04-10T07:36:43.915Z,66.07
2019-04-10T07:39:13.772Z,66.87
2019-04-10T07:41:42.856Z,65.27
2019-04-10T07:44:12.168Z,65.03
2019-04-10T07:46:42.366Z,62.07
2019-04-10T07:49:11.651Z,61.67
2019-04-10T07:51:40.822Z,63.80
2019-04-10T07:54:09.952Z,60.87
2019-04-10T07:56:39.587Z,64.67
2019-04-10T07:59:08.863Z,60.77
2019-04-10T08:01:38.100Z,60.90
2019-04-10T08:04:08.243Z,61.13
2019-04-10T08:06:37.534Z,61.47
2019-04-10T08:09:08.421Z,58.03
2019-04-10T08:11:38.127Z,59.93
2019-04-10T08:14:08.501Z,61.77
2019-04-10T08:16:39.247Z,59.33
2019-04-10T08:19:08.558Z,55.53
2019-04-10T08:21:38.082Z,57.10
2019-04-10T08:24:07.419Z,59.13
2019-04-10T08:26:36.750Z,57.40
2019-04-10T08:29:05.847Z,56.73
2019-04-10T08:31:35.129Z,56.00
2019-04-10T08:34:04.390Z,56.90
2019-04-10T08:36:33.407Z,54.90
2019-04-10T08:39:02.977Z,52.13
2019-04-10T08:41:33.012Z,56.40
2019-04-10T08:44:02.297Z,52.70
2019-04-10T08:46:31.399Z,52.80
2019-04-10T08:49:00.503Z,51.97
2019-04-10T08:51:29.566Z,52.00
2019-04-10T08:53:58.679Z,50.00
2019-04-10T08:56:28.028Z,49.53
2019-04-10T08:58:57.299Z,46.03
2019-04-10T09:01:26.691Z,50.13
2019-04-10T09:03:55.814Z,47.97
2019-04-10T09:06:25.229Z,49.43
2019-04-10T09:08:54.406Z,46.40
2019-04-10T09:11:26.884Z,47.90
2019-04-10T09:13:54.923Z,45.43
2019-04-10T09:16:24.708Z,47.63
2019-04-10T09:18:54.007Z,43.70
2019-04-10T09:21:23.724Z,46.63
2019-04-10T09:23:56.018Z,44.83
2019-04-10T09:26:24.491Z,45.17
2019-04-10T09:28:54.845Z,42.93
2019-04-10T09:31:24.032Z,42.53
2019-04-10T09:33:53.712Z,42.90
2019-04-10T09:36:22.987Z,40.87
2019-04-10T09:38:52.817Z,42.00
2019-04-10T09:41:22.267Z,41.87
2019-04-10T09:43:51.449Z,39.87
2019-04-10T09:46:21.034Z,41.50
2019-04-10T09:48:50.099Z,39.50
2019-04-10T09:51:19.610Z,40.00
2019-04-10T09:53:48.957Z,41.27
2019-04-10T09:56:19.217Z,40.73
2019-04-10T09:58:49.095Z,40.77
2019-04-10T10:01:18.329Z,39.47
2019-04-10T10:03:48.567Z,38.17
2019-04-10T10:06:27.035Z,41.03
2019-04-10T10:08:48.789Z,41.47
2019-04-10T10:11:18.117Z,38.10
2019-04-10T10:13:48.230Z,38.30
2019-04-10T10:16:17.503Z,43.40
2019-04-10T10:18:47.714Z,43.03
2019-04-10T10:21:16.980Z,42.40
2019-04-10T10:23:46.484Z,38.27
2019-04-10T10:26:15.623Z,36.00
2019-04-10T10:28:45.059Z,41.97
2019-04-10T10:31:14.390Z,36.97
2019-04-10T10:33:43.541Z,40.33
2019-04-10T10:36:13.529Z,38.27
2019-04-10T10:38:43.381Z,39.03
2019-04-10T10:41:13.015Z,36.27
2019-04-10T10:43:42.620Z,38.80
2019-04-10T10:46:11.861Z,33.93
2019-04-10T10:48:41.856Z,35.80
2019-04-10T10:51:11.105Z,34.63
2019-04-10T10:53:40.764Z,34.57
2019-04-10T10:56:09.926Z,34.53
2019-04-10T10:58:39.744Z,34.20
2019-04-10T11:01:08.987Z,32.70
2019-04-10T11:03:38.260Z,31.77
2019-04-10T11:06:07.471Z,36.17
2019-04-10T11:08:37.661Z,33.37
2019-04-10T11:11:06.759Z,31.87
2019-04-10T11:13:36.989Z,34.17
2019-04-10T11:16:07.561Z,31.93
2019-04-10T11:18:36.712Z,32.30
2019-04-10T11:21:09.915Z,31.27
2019-04-10T11:23:37.622Z,34.90
2019-04-10T11:26:06.817Z,30.83
2019-04-10T11:28:36.859Z,31.37
2019-04-10T11:31:07.112Z,31.43
2019-04-10T11:33:37.308Z,30.30
2019-04-10T11:36:07.721Z,30.97
2019-04-10T11:38:37.479Z,30.27
2019-04-10T11:41:07.913Z,31.63
2019-04-10T11:43:37.713Z,29.13
2019-04-10T11:46:07.955Z,31.93
2019-04-10T11:48:39.112Z,32.87
2019-04-10T11:51:10.113Z,30.03
2019-04-10T11:53:42.354Z,30.27
2019-04-10T11:56:11.454Z,30.77
2019-04-10T11:58:49.461Z,33.10
2019-04-10T12:01:13.025Z,30.57
2019-04-10T12:03:48.518Z,30.23
2019-04-10T12:06:13.648Z,29.13
2019-04-10T12:11:18.773Z,29.63
2019-04-10T12:13:46.212Z,29.63
2019-04-10T12:16:15.381Z,29.23
2019-04-10T12:18:44.671Z,30.00
2019-04-10T12:21:13.932Z,28.73
2019-04-10T12:23:43.183Z,29.67
2019-04-10T12:26:12.355Z,33.97
2019-04-10T12:28:42.326Z,30.63
2019-04-10T12:31:12.033Z,29.57
2019-04-10T12:33:42.231Z,29.93
2019-04-10T12:36:12.183Z,33.90
2019-04-10T12:38:41.623Z,28.47
2019-04-10T12:41:11.103Z,41.17
2019-04-10T12:43:41.087Z,30.13
2019-04-10T12:46:10.782Z,34.03
2019-04-10T12:48:40.972Z,30.13
2019-04-10T12:51:11.780Z,28.83
2019-04-10T12:53:40.956Z,27.30
2019-04-10T12:56:10.215Z,26.37
2019-04-10T12:58:39.413Z,25.50
2019-04-10T13:01:08.959Z,26.53
2019-04-10T13:03:39.024Z,25.83
2019-04-10T13:06:09.445Z,26.70
2019-04-10T13:08:54.388Z,25.70
2019-04-10T13:11:10.108Z,25.43
2019-04-10T13:13:39.363Z,24.93
2019-04-10T13:16:08.436Z,24.63
2019-04-10T13:18:38.542Z,23.80
2019-04-10T13:21:08.412Z,22.03
2019-04-10T13:23:38.525Z,22.73
2019-04-10T13:26:10.470Z,23.53
2019-04-10T13:28:39.396Z,23.40
2019-04-10T13:31:08.943Z,22.77
2019-04-10T13:33:38.559Z,22.90
2019-04-10T13:36:07.917Z,21.77
2019-04-10T13:38:38.074Z,24.43
2019-04-10T13:41:08.130Z,22.57
2019-04-10T13:43:38.069Z,19.83
2019-04-10T13:46:07.312Z,20.37
2019-04-10T13:48:37.462Z,20.70
2019-04-10T13:51:07.479Z,20.77
2019-04-10T13:53:37.699Z,20.97
2019-04-10T13:56:06.979Z,18.60
2019-04-10T13:58:36.241Z,18.57
2019-04-10T14:01:07.803Z,19.67
2019-04-10T14:03:36.970Z,19.23
2019-04-10T14:06:07.408Z,21.40
2019-04-10T14:08:56.146Z,20.13
2019-04-10T14:11:07.544Z,28.07
2019-04-10T14:13:37.914Z,22.83
2019-04-10T14:16:07.199Z,21.07
2019-04-10T14:18:37.077Z,24.77
2019-04-10T14:21:11.235Z,22.60
2019-04-10T14:23:37.454Z,23.07
2019-04-10T14:26:46.027Z,22.77
2019-04-10T14:29:16.313Z,23.07
2019-04-10T14:31:54.560Z,22.23
2019-04-10T14:34:23.665Z,21.70
2019-04-10T14:36:52.812Z,23.57
2019-04-10T14:39:22.919Z,23.13
2019-04-10T14:41:52.314Z,25.03
2019-04-10T14:44:21.412Z,23.37
2019-04-10T14:46:50.512Z,23.53
2019-04-10T14:49:20.793Z,23.30
2019-04-10T14:51:50.052Z,24.53
2019-04-10T14:54:19.626Z,24.33
2019-04-10T14:56:48.784Z,24.93
2019-04-10T14:59:17.890Z,23.40
2019-04-10T15:01:48.286Z,22.67
2019-04-10T15:04:17.508Z,30.23
2019-04-10T15:06:46.570Z,23.90
2019-04-10T15:09:24.935Z,22.70
2019-04-10T15:11:49.078Z,55.87
2019-04-10T15:14:19.337Z,28.43
2019-04-10T15:16:57.483Z,117.50
2019-04-10T15:19:20.510Z,24.60
2019-04-10T15:21:49.871Z,23.93
2019-04-10T15:24:19.490Z,24.20
2019-04-10T15:26:48.875Z,25.63
2019-04-10T15:29:18.399Z,24.50
2019-04-10T15:31:48.100Z,24.90
2019-04-10T15:34:18.299Z,23.83
2019-04-10T15:36:48.161Z,25.47
2019-04-10T15:39:25.773Z,25.57
2019-04-10T15:41:49.721Z,24.17
2019-04-10T15:44:18.898Z,25.63
2019-04-10T15:46:48.984Z,23.57
2019-04-10T15:49:19.383Z,23.27
2019-04-10T15:51:49.642Z,23.27
2019-04-10T15:54:18.869Z,23.70
2019-04-10T15:56:48.078Z,23.90
2019-04-10T15:59:17.174Z,23.17
2019-04-10T16:01:46.890Z,23.47
2019-04-10T16:04:17.103Z,23.57
2019-04-10T16:06:47.382Z,24.43
2019-04-10T16:09:17.500Z,23.30
2019-04-10T16:11:54.330Z,24.70
2019-04-10T16:14:27.131Z,22.57
2019-04-10T16:17:13.129Z,23.87
2019-04-10T16:19:51.308Z,21.33
2019-04-10T16:22:33.394Z,24.40
2019-04-10T16:25:09.607Z,22.43
2019-04-10T16:27:39.103Z,23.53
2019-04-10T16:30:14.436Z,22.57
2019-04-10T16:32:44.212Z,24.20
2019-04-10T16:35:13.926Z,25.00
2019-04-10T16:37:43.994Z,23.93
2019-04-10T16:40:13.323Z,24.20
2019-04-10T16:42:43.603Z,24.83
2019-04-10T16:45:13.586Z,23.60
2019-04-10T16:47:43.840Z,24.00
2019-04-10T16:50:13.358Z,24.63
2019-04-10T16:52:42.443Z,27.20
2019-04-10T16:55:11.651Z,24.93
2019-04-10T16:57:41.000Z,26.80
2019-04-10T17:00:13.603Z,25.10
2019-04-10T17:02:42.315Z,110.93
2019-04-10T17:05:12.379Z,36.60
2019-04-10T17:07:41.579Z,49.40
2019-04-10T17:10:16.519Z,47.77
2019-04-10T17:12:42.196Z,27.83
2019-04-10T17:15:12.230Z,25.00
2019-04-10T17:17:42.266Z,28.17
2019-04-10T17:20:11.960Z,24.80
2019-04-10T17:22:44.422Z,24.67
2019-04-10T17:25:12.113Z,26.73
2019-04-10T17:27:41.241Z,26.07
2019-04-10T17:30:11.559Z,26.33
2019-04-10T17:32:40.911Z,26.47
2019-04-10T17:35:11.531Z,25.53
2019-04-10T17:37:42.127Z,25.33
2019-04-10T17:40:28.515Z,27.57
2019-04-10T17:42:46.715Z,24.90
2019-04-10T17:45:15.822Z,28.03
2019-04-10T17:47:45.141Z,27.97
2019-04-10T17:50:18.229Z,29.37
2019-04-10T17:52:47.523Z,33.93
2019-04-10T17:55:17.643Z,32.93
2019-04-10T17:57:47.763Z,32.07
2019-04-10T18:00:37.593Z,34.10
2019-04-10T18:03:07.614Z,29.50
2019-04-10T18:05:37.135Z,31.50
2019-04-10T18:08:06.408Z,29.53
2019-04-10T18:10:46.539Z,27.93
2019-04-10T18:13:06.676Z,27.70
2019-04-10T18:15:35.964Z,25.77
2019-04-10T18:18:05.337Z,31.40
2019-04-10T18:20:34.544Z,27.37
2019-04-10T18:23:04.015Z,29.80
2019-04-10T18:25:34.052Z,29.67
2019-04-10T18:28:03.446Z,62.20
2019-04-10T18:30:34.059Z,161.50
2019-04-10T18:33:05.007Z,35.17
2019-04-10T18:35:35.239Z,37.00
2019-04-10T18:38:05.631Z,35.50
2019-04-10T18:40:35.254Z,32.43
2019-04-10T18:43:04.621Z,29.43
2019-04-10T18:45:33.773Z,28.13
2019-04-10T18:48:02.977Z,31.03
2019-04-10T18:50:32.275Z,30.70
2019-04-10T18:53:01.659Z,31.00
2019-04-10T18:55:31.161Z,30.67
2019-04-10T18:58:03.276Z,27.67
2019-04-10T19:01:07.143Z,26.87
2019-04-10T19:03:56.857Z,29.53
2019-04-10T19:06:26.804Z,30.27
2019-04-10T19:09:07.680Z,38.80
2019-04-10T19:11:32.457Z,103.57
2019-04-10T19:13:57.797Z,68.97
2019-04-10T19:16:27.679Z,54.97
2019-04-10T19:18:56.943Z,33.60
2019-04-10T19:21:27.142Z,31.93
2019-04-10T19:23:57.384Z,30.50
2019-04-10T19:26:27.401Z,32.70
2019-04-10T19:28:57.152Z,32.80
2019-04-10T19:31:27.657Z,31.50
2019-04-10T19:33:57.045Z,30.60
2019-04-10T19:36:26.154Z,30.73
2019-04-10T19:38:55.884Z,27.27
2019-04-10T19:41:31.110Z,36.27
2019-04-10T19:43:56.864Z,29.03
2019-04-10T19:46:26.162Z,27.33
2019-04-10T19:48:55.569Z,28.83
2019-04-10T19:51:25.815Z,24.60
2019-04-10T19:53:54.990Z,24.37
2019-04-10T19:56:24.475Z,23.20
2019-04-10T19:58:54.503Z,23.70
2019-04-10T20:01:26.769Z,20.83
2019-04-10T20:03:54.779Z,20.53
2019-04-10T20:06:25.221Z,21.80
2019-04-10T20:08:55.642Z,19.13
2019-04-10T20:11:33.508Z,16.47
2019-04-10T20:13:57.034Z,16.40
2019-04-10T20:16:27.023Z,15.93
2019-04-10T20:18:57.126Z,15.77
2019-04-10T20:21:26.351Z,15.87
2019-04-10T20:23:56.358Z,20.37
2019-04-10T20:26:25.572Z,14.43
2019-04-10T20:28:56.057Z,15.63
2019-04-10T20:31:29.009Z,16.57
2019-04-10T20:33:59.102Z,16.07
2019-04-10T20:36:29.110Z,14.63
2019-04-10T20:38:59.027Z,15.80
2019-04-10T20:41:28.746Z,13.93
2019-04-10T20:43:57.964Z,13.63
2019-04-10T20:46:28.404Z,12.73
2019-04-10T20:48:57.646Z,15.47
2019-04-10T20:51:26.770Z,13.33
2019-04-10T20:53:56.102Z,13.07
2019-04-10T20:56:26.339Z,14.47
2019-04-10T20:58:55.667Z,14.57
2019-04-10T21:01:24.835Z,13.57
2019-04-10T21:03:53.971Z,13.50
2019-04-10T21:06:23.315Z,12.57
2019-04-10T21:08:52.655Z,15.93
2019-04-10T21:11:22.623Z,13.70
2019-04-10T21:13:51.935Z,13.23
2019-04-10T21:16:21.040Z,13.97
2019-04-10T21:18:50.132Z,16.30
2019-04-10T21:21:19.297Z,15.33
2019-04-10T21:23:48.698Z,15.27
2019-04-10T21:26:19.791Z,12.67
2019-04-10T21:28:48.877Z,13.20
2019-04-10T21:31:39.268Z,15.70
2019-04-10T21:34:28.514Z,14.70
2019-04-10T21:36:57.778Z,13.93
2019-04-10T21:39:27.713Z,14.17
2019-04-10T21:42:09.316Z,14.80
2019-04-10T21:44:28.819Z,17.63
2019-04-10T21:46:59.201Z,15.53
2019-04-10T21:49:28.564Z,16.07
2019-04-10T21:51:57.911Z,13.93
2019-04-10T21:54:27.246Z,15.13
2019-04-10T21:56:57.578Z,13.33
2019-04-10T21:59:27.034Z,14.43
2019-04-10T22:01:57.034Z,18.57
2019-04-10T22:04:27.377Z,15.70
2019-04-10T22:07:13.967Z,18.27
2019-04-10T22:10:12.003Z,17.13
2019-04-10T22:12:46.685Z,16.90
2019-04-10T22:15:43.437Z,17.43
2019-04-10T22:18:12.882Z,14.70
2019-04-10T22:20:42.187Z,11.47
2019-04-10T22:23:11.692Z,16.53
2019-04-10T22:25:40.864Z,15.00
2019-04-10T22:28:10.165Z,14.33
2019-04-10T22:30:39.349Z,14.53
2019-04-10T22:33:08.640Z,14.10
2019-04-10T22:35:37.802Z,19.90
2019-04-10T22:38:06.896Z,13.63
2019-04-10T22:40:35.990Z,11.87
2019-04-10T22:43:05.429Z,12.63
2019-04-10T22:45:34.592Z,16.10
2019-04-10T22:48:04.166Z,13.03
2019-04-10T22:50:34.488Z,14.83
2019-04-10T22:53:04.708Z,14.23
2019-04-10T22:55:33.928Z,15.00
2019-04-10T22:58:03.104Z,12.27
2019-04-10T23:00:32.952Z,11.43
2019-04-10T23:03:03.122Z,14.37
2019-04-10T23:05:32.540Z,14.10
2019-04-10T23:08:01.702Z,13.27
2019-04-10T23:10:30.980Z,13.13
2019-04-10T23:13:04.806Z,14.53
2019-04-10T23:15:31.420Z,16.27
2019-04-10T23:18:01.305Z,13.30
2019-04-10T23:20:30.507Z,12.40
2019-04-10T23:23:00.899Z,12.83
2019-04-10T23:25:30.293Z,11.47
2019-04-10T23:27:59.373Z,16.43
2019-04-10T23:30:28.843Z,11.50
2019-04-10T23:32:58.026Z,13.00
2019-04-10T23:35:27.623Z,14.77
2019-04-10T23:37:57.393Z,12.37
2019-04-10T23:40:27.180Z,13.63
2019-04-10T23:43:07.542Z,13.43
2019-04-10T23:45:27.246Z,12.73
2019-04-10T23:47:56.343Z,11.43
2019-04-10T23:50:26.122Z,13.23
2019-04-10T23:52:56.218Z,13.43
2019-04-10T23:55:26.157Z,15.70
2019-04-10T23:57:55.911Z,17.43
